Corwith Cramer — WTF3319 — position and weather

sailwx.info

Track history (hours):
 
Tides and Currents Weather Stations Pressure Air Temp Water Temp Dewpoint Dewpoint Depression Visibility Wind Speed Wind Dir Waves Ship Positions

Oceanographic research ship Corwith Cramer (USA)

Ship's website: http://www.sea.edu/sea2000/AboutSEA2000/cramer.htm

Detailed information on ship capabilities available from University of Delaware's Ocean Information Center.

Owner: SEA EDUCATION ASSOCIATION, WOODS HOLE, MA. More information available from US FCC via Universal Licensing System and Coast Guard Vessel Documentation Center.

Last reported at 2020-Mar-13 11:56 UTC. Time now 2020-Apr-05 13:02 UTC.
Position N 18°22' W 064°45'.
Warning: this ship's position is 23 days out of date.

Type: Sailing vessel. MMSI: 366724450.

Date/timePositionNaut miles runAvg speedWind from/ knotsBaromVisibWave heightAir tempDewpointWater temp
2020-Mar-13 11:56N 18°22' W 064°45'0 0.0
2020-Mar-13 09:14N 18°22' W 064°45'0 0.0
2020-Mar-13 02:19N 18°22' W 064°45'0 0.0
2020-Mar-12 21:19N 18°22' W 064°45'0 0.0
2020-Mar-12 20:43N 18°22' W 064°45'  
2020-Mar-09 18:08N 17°35' W 063°11'1 4.2
2020-Mar-09 17:59N 17°34' W 063°12'2 4.4
2020-Mar-09 17:28N 17°32' W 063°13'2 4.5
2020-Mar-09 16:56N 17°34' W 063°14'8 5.4
2020-Mar-09 15:30N 17°41' W 063°17'2 4.8
2020-Mar-09 15:00N 17°43' W 063°18'2 4.5
2020-Mar-09 14:30N 17°45' W 063°19'15 3.8
2020-Mar-09 10:30N 17°60' W 063°25'7 3.4
2020-Mar-09 08:29N 18°07' W 063°24'5 4.9
2020-Mar-09 07:28N 18°11' W 063°23'10 0.3
2020-Mar-07 19:48N 18°20' W 063°18'4 4.9
2020-Mar-07 18:59N 18°16' W 063°18'6 5.8
2020-Mar-07 17:53N 18°10' W 063°15'3 6.2
2020-Mar-07 17:23N 18°07' W 063°14'8 3.3
2020-Mar-07 14:56N 18°00' W 063°10'1 1.5
2020-Mar-07 14:23N 18°00' W 063°09'1 1.2
2020-Mar-07 13:45N 17°60' W 063°08'0 0.9
2020-Mar-07 13:22N 17°60' W 063°08'3 3.9
2020-Mar-07 12:29N 17°57' W 063°09'1 0.6
2020-Mar-07 10:51N 17°57' W 063°10'2 1.4
2020-Mar-07 09:20N 17°59' W 063°10'4 3.7
2020-Mar-07 08:20N 17°55' W 063°12'2 0.7
2020-Mar-07 04:50N 17°53' W 063°13'5 3.8
2020-Mar-07 03:36N 17°58' W 063°13'1 2.1
2020-Mar-07 03:18N 17°58' W 063°13'1 1.3
2020-Mar-07 02:28N 17°57' W 063°12'3 0.8
2020-Mar-06 23:29N 17°57' W 063°15'7 5.8
2020-Mar-06 22:23N 17°51' W 063°15'  
Track history (hours):
 
Tides and Currents Weather Stations Pressure Air Temp Water Temp Dewpoint Dewpoint Depression Visibility Wind Speed Wind Dir Waves Ship Positions

Oceanographic research ship Corwith Cramer (USA)

Ship's website: http://www.sea.edu/sea2000/AboutSEA2000/cramer.htm

Detailed information on ship capabilities available from University of Delaware's Ocean Information Center.

Owner: SEA EDUCATION ASSOCIATION, WOODS HOLE, MA. More information available from US FCC via Universal Licensing System and Coast Guard Vessel Documentation Center.

Last reported at 2020-Mar-13 11:56 UTC. Time now 2020-Apr-05 13:02 UTC.
Position N 18°22' W 064°45'.
Warning: this ship's position is 23 days out of date.

Type: Sailing vessel. MMSI: 366724450.

Date/timePositionNaut miles runAvg speedWind from/ knotsBaromVisibWave heightAir tempDewpointWater temp
2020-Mar-13 11:56N 18°22' W 064°45'0 0.0
2020-Mar-13 09:14N 18°22' W 064°45'0 0.0
2020-Mar-13 02:19N 18°22' W 064°45'0 0.0
2020-Mar-12 21:19N 18°22' W 064°45'0 0.0
2020-Mar-12 20:43N 18°22' W 064°45'  
2020-Mar-09 18:08N 17°35' W 063°11'1 4.2
2020-Mar-09 17:59N 17°34' W 063°12'2 4.4
2020-Mar-09 17:28N 17°32' W 063°13'2 4.5
2020-Mar-09 16:56N 17°34' W 063°14'8 5.4
2020-Mar-09 15:30N 17°41' W 063°17'2 4.8
2020-Mar-09 15:00N 17°43' W 063°18'2 4.5
2020-Mar-09 14:30N 17°45' W 063°19'15 3.8
2020-Mar-09 10:30N 17°60' W 063°25'7 3.4
2020-Mar-09 08:29N 18°07' W 063°24'5 4.9
2020-Mar-09 07:28N 18°11' W 063°23'10 0.3
2020-Mar-07 19:48N 18°20' W 063°18'4 4.9
2020-Mar-07 18:59N 18°16' W 063°18'6 5.8
2020-Mar-07 17:53N 18°10' W 063°15'3 6.2
2020-Mar-07 17:23N 18°07' W 063°14'8 3.3
2020-Mar-07 14:56N 18°00' W 063°10'1 1.5
2020-Mar-07 14:23N 18°00' W 063°09'1 1.2
2020-Mar-07 13:45N 17°60' W 063°08'0 0.9
2020-Mar-07 13:22N 17°60' W 063°08'3 3.9
2020-Mar-07 12:29N 17°57' W 063°09'1 0.6
2020-Mar-07 10:51N 17°57' W 063°10'2 1.4
2020-Mar-07 09:20N 17°59' W 063°10'4 3.7
2020-Mar-07 08:20N 17°55' W 063°12'2 0.7
2020-Mar-07 04:50N 17°53' W 063°13'5 3.8
2020-Mar-07 03:36N 17°58' W 063°13'1 2.1
2020-Mar-07 03:18N 17°58' W 063°13'1 1.3
2020-Mar-07 02:28N 17°57' W 063°12'3 0.8
2020-Mar-06 23:29N 17°57' W 063°15'7 5.8
2020-Mar-06 22:23N 17°51' W 063°15'  

Dump ship's entire track history